Time;durP1;ratioP1;P1;durP2;ratioP2;P2;SDS_P1;SDS_P2;PMS_P1;PMS_P2;Temp;Humidity;BMP_temperature;BMP_pressure;BME280_temperature;BME280_humidity;BME280_pressure;Samples;Min_cycle;Max_cycle;Signal;HPM_P1;HPM_P2
2021/07/07 00:01:26;;;;;;;1.00;0.80;;;21.00;61.80;;;;;;5056732;28;20059;-85
2021/07/07 00:03:52;;;;;;;1.60;0.93;;;21.00;61.90;;;;;;5056335;28;20024;-84
2021/07/07 00:06:18;;;;;;;0.73;0.70;;;20.90;61.90;;;;;;5059408;28;20036;-85
2021/07/07 00:08:44;;;;;;;0.70;0.60;;;20.90;61.90;;;;;;5056588;28;20165;-85
2021/07/07 00:11:10;;;;;;;0.60;0.60;;;20.90;61.90;;;;;;5053757;28;20028;-86
2021/07/07 00:13:36;;;;;;;1.27;0.82;;;20.90;62.00;;;;;;5062383;28;20032;-85
2021/07/07 00:16:02;;;;;;;1.60;0.90;;;20.90;62.00;;;;;;5062860;28;20050;-85
2021/07/07 00:18:28;;;;;;;1.30;0.82;;;20.80;62.00;;;;;;5059235;28;20108;-85
2021/07/07 00:20:55;;;;;;;1.02;0.70;;;20.80;62.10;;;;;;5058210;28;20036;-85
2021/07/07 00:23:23;;;;;;;0.75;0.65;;;20.80;62.10;;;;;;5059441;28;20170;-84
2021/07/07 00:25:53;;;;;;;1.13;0.80;;;20.80;62.10;;;;;;5065514;28;20043;-86
2021/07/07 00:28:20;;;;;;;1.25;0.70;;;20.80;62.10;;;;;;5038737;28;20035;-85
2021/07/07 00:30:47;;;;;;;1.20;0.80;;;20.80;62.20;;;;;;5047806;28;20027;-85
2021/07/07 00:33:17;;;;;;;2.80;0.70;;;20.80;62.20;;;;;;5058377;28;20028;-85
2021/07/07 00:35:44;;;;;;;1.00;0.75;;;20.70;62.20;;;;;;5042623;28;20042;-85
2021/07/07 00:38:12;;;;;;;0.77;0.73;;;20.70;62.20;;;;;;5058795;28;20518;-85
2021/07/07 00:40:40;;;;;;;0.68;0.68;;;20.70;62.20;;;;;;5058494;28;20028;-84
2021/07/07 00:43:06;;;;;;;0.82;0.80;;;20.70;62.30;;;;;;5049199;28;20024;-84
2021/07/07 00:45:32;;;;;;;1.02;0.70;;;20.70;62.40;;;;;;5051086;28;20020;-85
2021/07/07 00:47:58;;;;;;;1.02;0.80;;;20.60;62.30;;;;;;5063709;28;20084;-84
2021/07/07 00:50:25;;;;;;;1.15;0.80;;;20.60;62.30;;;;;;5059641;28;20472;-85
2021/07/07 00:52:51;;;;;;;0.75;0.75;;;20.60;62.40;;;;;;5042469;28;20024;-85
2021/07/07 00:55:17;;;;;;;1.58;1.00;;;20.60;62.40;;;;;;5050338;28;20109;-85
2021/07/07 00:57:44;;;;;;;0.80;0.80;;;20.60;62.50;;;;;;5061124;28;20028;-85
2021/07/07 01:00:16;;;;;;;0.70;0.70;;;20.60;62.50;;;;;;5070752;28;20055;-85
2021/07/07 01:02:47;;;;;;;0.70;0.70;;;20.50;62.50;;;;;;5050625;28;20114;-85
2021/07/07 01:05:14;;;;;;;1.17;0.80;;;20.50;62.50;;;;;;5048172;28;20028;-85
2021/07/07 01:07:41;;;;;;;1.45;0.90;;;20.50;62.50;;;;;;5051569;28;20020;-85
2021/07/07 01:10:09;;;;;;;1.52;1.10;;;20.50;62.50;;;;;;5050787;28;20107;-85
2021/07/07 01:12:35;;;;;;;0.80;0.80;;;20.50;62.60;;;;;;5056448;28;20095;-85
2021/07/07 01:15:04;;;;;;;0.95;0.80;;;20.40;62.50;;;;;;5052791;28;20088;-84
2021/07/07 01:17:35;;;;;;;0.70;0.70;;;20.40;62.50;;;;;;5057717;28;20119;-84
2021/07/07 01:20:09;;;;;;;1.10;0.70;;;20.40;62.50;;;;;;5047303;28;20024;-85
2021/07/07 01:22:35;;;;;;;0.82;0.82;;;20.40;62.50;;;;;;5058263;28;20016;-86
2021/07/07 01:25:01;;;;;;;1.00;0.90;;;20.40;62.50;;;;;;5052208;28;20028;-85
2021/07/07 01:27:27;;;;;;;1.33;0.82;;;20.40;62.50;;;;;;5076526;28;20097;-85
2021/07/07 01:29:55;;;;;;;1.65;0.85;;;20.30;62.50;;;;;;5047773;28;20020;-86
2021/07/07 01:32:21;;;;;;;1.75;0.98;;;20.30;62.60;;;;;;5055148;28;20070;-85
2021/07/07 01:34:47;;;;;;;1.27;1.00;;;20.30;62.60;;;;;;5062646;28;20028;-86
2021/07/07 01:37:13;;;;;;;0.80;0.80;;;20.30;62.60;;;;;;5058728;28;20024;-86
2021/07/07 01:39:41;;;;;;;0.77;0.77;;;20.30;62.60;;;;;;5035656;28;20032;-85
2021/07/07 01:42:07;;;;;;;1.15;0.80;;;20.30;62.70;;;;;;5048865;28;20024;-86
2021/07/07 01:44:38;;;;;;;1.15;1.00;;;20.20;62.60;;;;;;5057884;28;20081;-86
2021/07/07 01:47:06;;;;;;;0.70;0.70;;;20.20;62.70;;;;;;5025436;28;20028;-86
2021/07/07 01:49:32;;;;;;;1.25;0.90;;;20.20;62.70;;;;;;5058326;28;20522;-86
2021/07/07 01:51:58;;;;;;;1.00;0.90;;;20.10;62.70;;;;;;5057693;28;20040;-86
2021/07/07 01:54:26;;;;;;;1.33;0.90;;;20.10;62.70;;;;;;5039732;28;20081;-86
2021/07/07 01:56:52;;;;;;;1.38;1.02;;;20.10;62.80;;;;;;5057982;28;20036;-86
2021/07/07 01:59:21;;;;;;;1.52;1.05;;;20.10;62.80;;;;;;5066449;28;20032;-86
2021/07/07 02:01:47;;;;;;;1.48;0.85;;;20.10;62.80;;;;;;5058122;28;20043;-86
2021/07/07 02:04:16;;;;;;;0.88;0.77;;;20.00;62.80;;;;;;5057971;28;20039;-86
2021/07/07 02:06:42;;;;;;;0.70;0.70;;;20.00;62.90;;;;;;5056779;28;20047;-86
2021/07/07 02:09:08;;;;;;;1.90;0.90;;;20.00;62.90;;;;;;5060683;28;20028;-86
2021/07/07 02:11:35;;;;;;;1.40;1.10;;;20.00;62.90;;;;;;5069111;28;20019;-86
2021/07/07 02:14:02;;;;;;;2.42;1.00;;;19.90;62.90;;;;;;5036503;28;20083;-85
2021/07/07 02:16:28;;;;;;;2.30;1.08;;;19.90;62.90;;;;;;5053259;28;20024;-84
2021/07/07 02:18:54;;;;;;;1.08;0.73;;;19.90;62.90;;;;;;5065923;28;20388;-85
2021/07/07 02:21:20;;;;;;;1.85;1.23;;;19.90;63.00;;;;;;5057264;28;20027;-86
2021/07/07 02:23:46;;;;;;;0.93;0.90;;;19.90;63.00;;;;;;5057853;28;20028;-85
2021/07/07 02:26:12;;;;;;;1.40;1.00;;;19.80;63.00;;;;;;5058316;28;20025;-85
2021/07/07 02:28:38;;;;;;;1.20;1.00;;;19.80;63.00;;;;;;5066277;28;20073;-85
2021/07/07 02:31:04;;;;;;;1.20;0.90;;;19.80;63.00;;;;;;5045168;28;20092;-85
2021/07/07 02:33:30;;;;;;;0.95;0.85;;;19.80;63.10;;;;;;5067971;28;20517;-86
2021/07/07 02:35:56;;;;;;;2.40;1.08;;;19.70;63.00;;;;;;5058653;28;20079;-85
2021/07/07 02:38:23;;;;;;;1.58;1.05;;;19.70;63.10;;;;;;5061977;28;20032;-86
2021/07/07 02:40:54;;;;;;;1.00;0.90;;;19.70;63.20;;;;;;5061656;28;20039;-86
2021/07/07 02:43:21;;;;;;;1.45;0.98;;;19.70;63.80;;;;;;5053543;28;20027;-84
2021/07/07 02:45:47;;;;;;;1.00;1.00;;;19.70;63.20;;;;;;5069958;28;20077;-85
2021/07/07 02:48:14;;;;;;;1.23;1.13;;;19.70;63.20;;;;;;5059516;28;20468;-86
2021/07/07 02:50:41;;;;;;;0.95;0.93;;;19.60;63.20;;;;;;5074753;28;20127;-85
2021/07/07 02:53:12;;;;;;;1.08;0.98;;;19.60;63.30;;;;;;5058090;28;20162;-85
2021/07/07 02:55:43;;;;;;;0.80;0.80;;;19.60;63.30;;;;;;5060305;28;20044;-85
2021/07/07 02:58:09;;;;;;;1.17;0.98;;;19.60;63.30;;;;;;5060685;28;20075;-85
2021/07/07 03:00:43;;;;;;;1.08;1.00;;;19.60;63.30;;;;;;5060249;28;20040;-84
2021/07/07 03:03:19;;;;;;;1.52;1.20;;;19.60;63.40;;;;;;5057444;28;20118;-85
2021/07/07 03:05:54;;;;;;;1.55;0.90;;;19.50;63.40;;;;;;5061653;28;20108;-86
2021/07/07 03:08:25;;;;;;;1.05;1.02;;;19.50;63.40;;;;;;5060942;28;20043;-84
2021/07/07 03:10:51;;;;;;;1.10;1.00;;;19.50;63.30;;;;;;5053449;28;20028;-86
2021/07/07 03:13:19;;;;;;;0.88;0.85;;;19.50;63.40;;;;;;5056313;28;20016;-85
2021/07/07 03:15:46;;;;;;;1.38;1.13;;;19.40;63.40;;;;;;5057220;28;20027;-86
2021/07/07 03:18:13;;;;;;;1.05;0.93;;;19.40;63.40;;;;;;5068000;28;20029;-86
2021/07/07 03:20:41;;;;;;;1.60;1.20;;;19.40;63.50;;;;;;5070474;28;20031;-85
2021/07/07 03:23:08;;;;;;;1.65;1.00;;;19.40;63.50;;;;;;5070063;28;20039;-86
2021/07/07 03:25:36;;;;;;;1.10;1.00;;;19.40;63.50;;;;;;5060786;28;20012;-85
2021/07/07 03:28:04;;;;;;;1.60;1.10;;;19.40;63.60;;;;;;5059789;28;20032;-86
2021/07/07 03:30:30;;;;;;;1.35;1.20;;;19.30;63.50;;;;;;5064053;28;20024;-85
2021/07/07 03:32:58;;;;;;;1.45;1.20;;;19.30;64.20;;;;;;5060070;28;20415;-85
2021/07/07 03:35:25;;;;;;;1.15;0.93;;;19.30;63.60;;;;;;5059686;28;20017;-85
2021/07/07 03:37:51;;;;;;;0.93;0.90;;;19.30;63.60;;;;;;5069546;28;20024;-85
2021/07/07 03:40:18;;;;;;;0.95;0.95;;;19.30;63.60;;;;;;5073812;28;20024;-84
2021/07/07 03:42:44;;;;;;;1.65;1.30;;;19.30;63.70;;;;;;5051694;28;20464;-84
2021/07/07 03:45:13;;;;;;;2.05;1.40;;;19.20;63.70;;;;;;5043454;28;20132;-86
2021/07/07 03:47:39;;;;;;;1.55;1.25;;;19.20;63.80;;;;;;5065817;28;20024;-85
2021/07/07 03:50:07;;;;;;;0.98;0.98;;;19.20;63.70;;;;;;5056175;28;20031;-85
2021/07/07 03:52:33;;;;;;;1.67;1.05;;;19.20;63.80;;;;;;5047273;28;20439;-85
2021/07/07 03:55:00;;;;;;;2.22;1.60;;;19.20;63.80;;;;;;5058709;28;20023;-84
2021/07/07 03:57:26;;;;;;;1.73;1.30;;;19.20;63.90;;;;;;5059865;28;20031;-84
2021/07/07 03:59:52;;;;;;;2.55;1.38;;;19.20;63.90;;;;;;5059672;28;20051;-85
2021/07/07 04:02:17;;;;;;;1.33;1.10;;;19.20;63.90;;;;;;5057938;28;20037;-84
2021/07/07 04:04:43;;;;;;;1.33;1.23;;;19.10;63.90;;;;;;5048363;28;20024;-85
2021/07/07 04:07:10;;;;;;;1.40;1.20;;;19.10;63.90;;;;;;5055969;28;20029;-84
2021/07/07 04:09:36;;;;;;;1.20;1.10;;;19.10;64.00;;;;;;5057046;28;20043;-85
2021/07/07 04:12:02;;;;;;;1.52;1.15;;;19.10;64.00;;;;;;5054764;28;20031;-85
2021/07/07 04:14:29;;;;;;;1.10;1.10;;;19.10;64.10;;;;;;5067938;28;20119;-84
2021/07/07 04:16:57;;;;;;;1.25;1.10;;;19.10;64.10;;;;;;5072706;28;20028;-85
2021/07/07 04:19:24;;;;;;;1.10;1.00;;;19.10;64.10;;;;;;5051420;28;20036;-85
2021/07/07 04:21:51;;;;;;;1.23;1.17;;;19.10;64.20;;;;;;5038390;28;20045;-85
2021/07/07 04:24:18;;;;;;;1.35;1.20;;;19.00;64.80;;;;;;5055789;28;20036;-84
2021/07/07 04:26:44;;;;;;;1.35;1.20;;;19.00;64.20;;;;;;5064776;28;20028;-85
2021/07/07 04:29:11;;;;;;;2.95;1.55;;;19.00;64.20;;;;;;5056400;28;20096;-85
2021/07/07 04:31:38;;;;;;;1.30;1.20;;;19.00;64.20;;;;;;5058544;28;20034;-84
2021/07/07 04:34:04;;;;;;;1.45;1.10;;;19.00;64.30;;;;;;5056067;28;20035;-84
2021/07/07 04:36:30;;;;;;;1.48;1.25;;;19.00;64.20;;;;;;5056853;28;20372;-83
2021/07/07 04:38:57;;;;;;;2.10;1.40;;;19.00;64.30;;;;;;5058647;28;20036;-83
2021/07/07 04:41:23;;;;;;;1.45;1.35;;;19.00;64.30;;;;;;5067183;28;20031;-84
2021/07/07 04:43:49;;;;;;;2.03;1.23;;;19.00;64.30;;;;;;5058382;28;20032;-85
2021/07/07 04:46:16;;;;;;;1.33;1.23;;;19.00;64.30;;;;;;5033747;28;20464;-82
2021/07/07 04:48:43;;;;;;;1.80;1.40;;;19.00;64.30;;;;;;5053759;28;20033;-82
2021/07/07 04:51:09;;;;;;;1.55;1.10;;;19.00;64.50;;;;;;5067329;28;20017;-82
2021/07/07 04:53:35;;;;;;;1.60;1.38;;;19.00;64.40;;;;;;5056952;28;20024;-83
2021/07/07 04:56:01;;;;;;;1.63;1.33;;;19.00;64.50;;;;;;5054732;28;20031;-83
2021/07/07 04:58:27;;;;;;;1.55;1.20;;;19.00;64.50;;;;;;5074665;28;20055;-82
2021/07/07 05:00:55;;;;;;;2.10;1.20;;;18.90;64.50;;;;;;5057427;28;20135;-86
2021/07/07 05:03:21;;;;;;;1.88;1.20;;;18.90;64.50;;;;;;5059235;28;20024;-87
2021/07/07 05:05:47;;;;;;;1.30;1.15;;;18.90;64.50;;;;;;5055619;28;20384;-88
2021/07/07 05:08:13;;;;;;;1.52;1.23;;;19.00;64.60;;;;;;5059003;28;20032;-89
2021/07/07 05:10:46;;;;;;;3.13;1.30;;;19.00;64.60;;;;;;5056864;28;20031;-89
2021/07/07 05:13:22;;;;;;;1.75;1.08;;;18.90;64.70;;;;;;5059198;28;20024;-90
2021/07/07 05:15:54;;;;;;;1.92;1.38;;;18.90;64.60;;;;;;5045093;28;20082;-90
2021/07/07 05:18:23;;;;;;;1.40;1.30;;;18.90;64.70;;;;;;5058568;28;20379;-85
2021/07/07 05:20:49;;;;;;;2.20;1.40;;;18.90;64.70;;;;;;5057275;28;20025;-87
2021/07/07 05:23:15;;;;;;;1.10;1.00;;;18.90;64.70;;;;;;5058669;28;20065;-85
2021/07/07 05:25:42;;;;;;;1.83;1.25;;;18.90;64.70;;;;;;5074914;28;20059;-86
2021/07/07 05:28:08;;;;;;;1.40;1.17;;;18.90;64.80;;;;;;5071821;28;20028;-86
2021/07/07 05:30:34;;;;;;;1.10;1.00;;;18.90;64.80;;;;;;5050237;28;20029;-87
2021/07/07 05:33:01;;;;;;;1.30;1.20;;;19.00;64.90;;;;;;5056911;28;20025;-88
2021/07/07 05:35:27;;;;;;;1.83;1.30;;;19.00;64.90;;;;;;5055363;28;20035;-87
2021/07/07 05:37:54;;;;;;;1.95;1.38;;;19.00;64.90;;;;;;5058848;28;20043;-87
2021/07/07 05:40:21;;;;;;;1.30;1.20;;;19.00;64.90;;;;;;5028857;28;20111;-87
2021/07/07 05:42:52;;;;;;;1.60;1.30;;;19.00;65.00;;;;;;5063636;28;20035;-87
2021/07/07 05:45:20;;;;;;;1.17;1.05;;;19.00;65.00;;;;;;5065944;28;20032;-87
2021/07/07 05:47:47;;;;;;;1.60;1.02;;;19.00;65.10;;;;;;5054593;28;20163;-87
2021/07/07 05:50:13;;;;;;;1.40;1.13;;;19.00;65.10;;;;;;5074348;28;20016;-86
2021/07/07 05:52:39;;;;;;;1.60;1.30;;;19.00;65.10;;;;;;5038914;28;20482;-86
2021/07/07 05:55:06;;;;;;;1.48;1.10;;;19.00;65.10;;;;;;5057663;28;20060;-87
2021/07/07 05:57:37;;;;;;;1.92;1.33;;;19.00;65.10;;;;;;5060776;28;20070;-86
2021/07/07 06:00:16;;;;;;;2.13;1.37;;;19.10;65.20;;;;;;5062089;28;20044;-86
2021/07/07 06:02:44;;;;;;;2.22;1.25;;;19.10;65.20;;;;;;5045642;28;20055;-85
2021/07/07 06:05:12;;;;;;;1.77;1.20;;;19.10;65.20;;;;;;5061727;28;20035;-86
2021/07/07 06:07:41;;;;;;;2.15;1.23;;;19.10;65.20;;;;;;5063607;28;20039;-87
2021/07/07 06:10:09;;;;;;;2.13;1.38;;;19.10;65.20;;;;;;5058386;28;20431;-86
2021/07/07 06:12:35;;;;;;;1.35;1.20;;;19.10;65.20;;;;;;5061283;28;20036;-87
2021/07/07 06:15:02;;;;;;;1.30;1.13;;;19.10;65.20;;;;;;5070503;28;20016;-87
2021/07/07 06:17:30;;;;;;;1.40;1.20;;;19.10;65.20;;;;;;5062562;28;20024;-86
2021/07/07 06:19:59;;;;;;;2.05;1.23;;;19.20;65.20;;;;;;5066793;28;20035;-88
2021/07/07 06:22:28;;;;;;;1.80;1.17;;;19.20;65.30;;;;;;5054024;28;20112;-86
2021/07/07 06:24:57;;;;;;;1.25;1.15;;;19.20;65.20;;;;;;5028997;28;20033;-87
2021/07/07 06:27:23;;;;;;;2.17;1.20;;;19.20;65.20;;;;;;5061878;28;20032;-87
2021/07/07 06:29:48;;;;;;;1.55;1.25;;;19.20;65.20;;;;;;5062257;28;20028;-87
2021/07/07 06:32:18;;;;;;;1.27;1.15;;;19.20;65.20;;;;;;5040597;28;20495;-86
2021/07/07 06:34:47;;;;;;;2.17;1.20;;;19.30;65.30;;;;;;5078901;28;20048;-86
2021/07/07 06:37:21;;;;;;;1.70;1.25;;;19.30;65.30;;;;;;5061966;28;20614;-87
2021/07/07 06:39:46;;;;;;;1.67;1.15;;;19.30;65.30;;;;;;5061392;28;20419;-86
2021/07/07 06:42:12;;;;;;;1.60;1.25;;;19.30;65.30;;;;;;5043145;28;20081;-86
2021/07/07 06:44:38;;;;;;;1.50;1.25;;;19.30;65.20;;;;;;5058178;28;20029;-86
2021/07/07 06:47:07;;;;;;;1.27;1.17;;;19.40;65.30;;;;;;5048404;28;20089;-87
2021/07/07 06:49:34;;;;;;;2.35;1.40;;;19.40;65.30;;;;;;5045726;28;20127;-86
2021/07/07 06:52:00;;;;;;;1.60;1.30;;;19.40;65.20;;;;;;5052945;28;20479;-85
2021/07/07 06:54:26;;;;;;;2.63;1.20;;;19.40;65.20;;;;;;5058593;28;20036;-87
2021/07/07 06:56:52;;;;;;;1.88;1.52;;;19.50;65.20;;;;;;5066732;28;20046;-85
2021/07/07 06:59:21;;;;;;;1.75;1.30;;;19.50;65.20;;;;;;5058332;28;20028;-85
2021/07/07 07:01:47;;;;;;;1.85;1.38;;;19.50;65.20;;;;;;5050604;28;20048;-85
2021/07/07 07:04:16;;;;;;;1.80;1.27;;;19.60;65.30;;;;;;5061425;28;20024;-83
2021/07/07 07:06:45;;;;;;;2.55;1.40;;;19.60;65.30;;;;;;5044614;28;20027;-86
2021/07/07 07:09:19;;;;;;;2.10;1.27;;;19.60;65.30;;;;;;5060416;28;20024;-89
2021/07/07 07:11:45;;;;;;;1.30;1.20;;;19.60;65.20;;;;;;5058017;28;20032;-87
2021/07/07 07:14:11;;;;;;;1.17;1.10;;;19.60;65.10;;;;;;5057579;28;20690;-86
2021/07/07 07:16:37;;;;;;;1.30;1.20;;;19.70;65.20;;;;;;5044733;28;20488;-86
2021/07/07 07:19:11;;;;;;;1.48;1.20;;;19.70;65.10;;;;;;5060198;28;20020;-87
2021/07/07 07:21:48;;;;;;;1.33;1.17;;;19.80;65.20;;;;;;5060899;28;20384;-86
2021/07/07 07:24:30;;;;;;;1.35;1.17;;;19.80;65.30;;;;;;5038904;28;20252;-85
2021/07/07 07:26:57;;;;;;;1.60;1.20;;;19.90;65.20;;;;;;5057499;28;20525;-84
2021/07/07 07:29:25;;;;;;;1.30;1.20;;;19.80;65.00;;;;;;5060744;28;20020;-85
2021/07/07 07:31:51;;;;;;;2.03;1.20;;;19.90;65.10;;;;;;5057296;28;20063;-86
2021/07/07 07:34:17;;;;;;;1.88;1.20;;;19.90;65.00;;;;;;5060720;28;20044;-84
2021/07/07 07:36:46;;;;;;;1.65;1.20;;;20.00;65.10;;;;;;5057107;28;20105;-82
2021/07/07 07:39:21;;;;;;;1.63;1.20;;;20.00;65.10;;;;;;5043955;28;20056;-86
2021/07/07 07:41:47;;;;;;;1.42;1.30;;;20.00;65.00;;;;;;5062250;28;20067;-86
2021/07/07 07:44:13;;;;;;;1.80;1.20;;;20.10;65.00;;;;;;5060586;28;20083;-86
2021/07/07 07:46:42;;;;;;;2.38;1.40;;;20.20;65.00;;;;;;5061037;28;20043;-88
2021/07/07 07:49:10;;;;;;;2.13;1.50;;;20.20;65.00;;;;;;5060260;28;20024;-88
2021/07/07 07:51:42;;;;;;;1.95;1.40;;;20.30;64.90;;;;;;5058246;28;20016;-88
2021/07/07 07:54:10;;;;;;;1.20;1.10;;;20.30;65.00;;;;;;5056916;28;20387;-87
2021/07/07 07:56:36;;;;;;;2.17;1.27;;;20.40;64.80;;;;;;5060288;28;20024;-88
2021/07/07 07:59:02;;;;;;;2.25;1.13;;;20.40;64.80;;;;;;5060526;28;20016;-87
2021/07/07 08:01:34;;;;;;;1.58;1.17;;;20.40;64.70;;;;;;5060082;28;20048;-87
2021/07/07 08:04:05;;;;;;;2.10;1.30;;;20.40;64.70;;;;;;5057129;28;20034;-85
2021/07/07 08:06:31;;;;;;;1.80;1.10;;;20.50;64.70;;;;;;5041730;28;20380;-87
2021/07/07 08:08:58;;;;;;;1.45;1.20;;;20.60;64.70;;;;;;5056344;28;20036;-88
2021/07/07 08:11:30;;;;;;;1.42;1.20;;;20.60;64.60;;;;;;5057184;28;20664;-87
2021/07/07 08:13:59;;;;;;;1.85;1.23;;;20.70;64.60;;;;;;5048954;28;20479;-87
2021/07/07 08:16:34;;;;;;;1.85;1.23;;;20.80;64.50;;;;;;5044352;28;20022;-88
2021/07/07 08:19:03;;;;;;;1.55;1.30;;;20.80;64.50;;;;;;5045378;28;20070;-87
2021/07/07 08:21:29;;;;;;;1.77;1.30;;;20.90;64.40;;;;;;5060294;28;20113;-87
2021/07/07 08:23:55;;;;;;;1.58;1.27;;;21.00;64.30;;;;;;5058628;28;20036;-87
2021/07/07 08:26:26;;;;;;;1.73;1.30;;;21.00;64.20;;;;;;5060239;28;20460;-87
2021/07/07 08:28:58;;;;;;;2.63;1.38;;;21.10;64.20;;;;;;5051920;28;20473;-88
2021/07/07 08:31:29;;;;;;;1.52;1.17;;;21.10;64.10;;;;;;5056932;28;20109;-88
2021/07/07 08:33:55;;;;;;;1.95;1.30;;;21.20;64.00;;;;;;5065279;28;20055;-88
2021/07/07 08:39:13;;;;;;;1.38;1.20;;;21.30;63.90;;;;;;5042045;28;20094;-85
2021/07/07 08:41:40;;;;;;;1.95;1.35;;;21.40;63.70;;;;;;5054201;28;20414;-84
2021/07/07 08:44:07;;;;;;;1.95;1.13;;;21.50;63.70;;;;;;5058389;28;20111;-88
2021/07/07 08:46:37;;;;;;;1.85;1.30;;;21.60;63.70;;;;;;5059365;28;20032;-87
2021/07/07 08:49:06;;;;;;;1.52;1.13;;;21.60;63.60;;;;;;5060087;28;20055;-88
2021/07/07 08:51:41;;;;;;;1.40;1.00;;;21.70;63.50;;;;;;5045818;28;20021;-88
2021/07/07 08:54:13;;;;;;;1.23;1.08;;;21.80;63.50;;;;;;5056411;28;20456;-89
2021/07/07 08:56:43;;;;;;;1.23;1.10;;;21.90;63.40;;;;;;5051519;28;20028;-88
2021/07/07 08:59:14;;;;;;;1.88;1.20;;;22.00;63.40;;;;;;5059377;28;20046;-88
2021/07/07 09:02:14;;;;;;;0.90;0.90;;;22.00;63.30;;;;;;5061386;28;20044;-88
2021/07/07 09:04:46;;;;;;;1.10;1.00;;;22.10;63.40;;;;;;5051344;28;20124;-89
2021/07/07 09:07:18;;;;;;;2.38;1.08;;;22.20;63.20;;;;;;5059800;28;20487;-88
2021/07/07 09:09:54;;;;;;;1.40;1.17;;;22.30;63.30;;;;;;5051261;28;20016;-89
2021/07/07 09:12:30;;;;;;;0.95;0.93;;;22.30;63.20;;;;;;5059133;28;20020;-88
2021/07/07 09:15:08;;;;;;;2.15;1.20;;;22.40;63.30;;;;;;5035081;28;20463;-89
2021/07/07 09:17:45;;;;;;;0.90;0.90;;;22.50;63.40;;;;;;5059692;28;20027;-87
2021/07/07 09:20:34;;;;;;;1.38;1.10;;;22.60;63.30;;;;;;5044944;28;20025;-90
2021/07/07 09:23:17;;;;;;;1.50;1.15;;;22.60;63.20;;;;;;5059194;28;20062;-88
2021/07/07 09:26:07;;;;;;;1.00;0.90;;;22.80;63.20;;;;;;5059762;28;20039;-88
2021/07/07 09:28:50;;;;;;;1.10;1.00;;;22.80;63.00;;;;;;5061390;28;20041;-87
2021/07/07 09:31:41;;;;;;;1.33;1.00;;;22.90;62.90;;;;;;5048057;28;20025;-88
2021/07/07 09:34:18;;;;;;;1.45;0.90;;;23.10;63.00;;;;;;5058165;28;20044;-87
2021/07/07 09:36:56;;;;;;;1.65;0.75;;;23.10;62.80;;;;;;5059321;28;20067;-87
2021/07/07 09:39:41;;;;;;;2.10;1.10;;;23.20;62.80;;;;;;5048071;28;20024;-89
2021/07/07 09:42:08;;;;;;;2.00;1.00;;;23.30;62.80;;;;;;5075429;28;20042;-89
2021/07/07 09:44:36;;;;;;;2.08;1.05;;;23.40;62.70;;;;;;5056014;28;20052;-88
2021/07/07 09:47:04;;;;;;;1.33;0.90;;;23.40;62.70;;;;;;5042309;28;20043;-87
2021/07/07 09:49:40;;;;;;;1.50;0.90;;;23.60;62.70;;;;;;5059347;28;20024;-88
2021/07/07 09:52:07;;;;;;;1.23;1.10;;;23.60;62.60;;;;;;5056331;28;20035;-87
2021/07/07 09:54:37;;;;;;;1.20;1.10;;;23.70;62.40;;;;;;5059236;28;21054;-88
2021/07/07 09:57:05;;;;;;;1.10;1.00;;;23.70;62.40;;;;;;5059676;28;20062;-88
2021/07/07 09:59:36;;;;;;;1.67;1.13;;;23.80;62.30;;;;;;5057114;28;20066;-88
2021/07/07 10:02:07;;;;;;;2.50;1.20;;;23.90;62.30;;;;;;5053471;28;20052;-88
2021/07/07 10:04:37;;;;;;;0.98;0.98;;;23.90;62.20;;;;;;5051045;28;20736;-88
2021/07/07 10:07:07;;;;;;;1.08;0.82;;;24.00;62.20;;;;;;5038791;28;20040;-89
2021/07/07 10:09:46;;;;;;;1.48;1.08;;;24.10;62.10;;;;;;5057884;28;20101;-89
2021/07/07 10:12:21;;;;;;;1.20;1.10;;;24.10;62.10;;;;;;5059095;28;20016;-89
2021/07/07 10:14:50;;;;;;;1.98;1.10;;;24.20;62.00;;;;;;5058475;28;20021;-89
2021/07/07 10:17:19;;;;;;;2.45;1.20;;;24.30;61.90;;;;;;5055936;28;20017;-88
2021/07/07 10:19:49;;;;;;;1.90;1.05;;;24.30;61.80;;;;;;5056123;28;20021;-89
2021/07/07 10:22:18;;;;;;;2.35;1.20;;;24.40;61.80;;;;;;5058815;28;20539;-89
2021/07/07 10:24:45;;;;;;;1.17;1.00;;;24.40;61.70;;;;;;5059548;28;20066;-89
2021/07/07 10:27:11;;;;;;;1.73;1.20;;;24.50;61.70;;;;;;5055341;28;20028;-88
2021/07/07 10:29:37;;;;;;;1.20;1.08;;;24.50;61.60;;;;;;5075200;28;20028;-90
2021/07/07 10:32:09;;;;;;;1.50;1.17;;;24.60;61.60;;;;;;5059286;28;20452;-89
2021/07/07 10:34:37;;;;;;;1.35;1.10;;;24.60;61.50;;;;;;5059374;28;20031;-89
2021/07/07 10:37:10;;;;;;;1.48;1.08;;;24.70;61.40;;;;;;5059445;28;20024;-89
2021/07/07 10:39:36;;;;;;;2.50;1.25;;;24.80;61.40;;;;;;5055733;28;20021;-88
2021/07/07 10:42:04;;;;;;;0.95;0.93;;;24.80;61.20;;;;;;5055741;28;20139;-89
2021/07/07 10:44:43;;;;;;;1.85;1.13;;;24.80;61.20;;;;;;5070414;28;20031;-90
2021/07/07 10:47:42;;;;;;;1.52;1.17;;;24.80;61.20;;;;;;5079523;28;20040;-89
2021/07/07 10:50:40;;;;;;;1.77;1.15;;;24.90;61.20;;;;;;5054223;28;20042;-93
2021/07/07 10:53:24;;;;;;;1.13;1.02;;;24.90;61.10;;;;;;5057591;28;20028;-90
2021/07/07 10:56:08;;;;;;;1.20;1.00;;;25.00;61.20;;;;;;5056066;28;20020;-88
2021/07/07 10:58:36;;;;;;;;;;;25.10;61.10;;;;;;5070168;28;20115;-85
2021/07/07 11:01:36;;;;;;;1.30;1.00;;;25.10;61.10;;;;;;5058017;28;20352;-84
2021/07/07 11:04:05;;;;;;;1.45;1.00;;;25.10;61.00;;;;;;5055980;28;20119;-88
2021/07/07 11:06:38;;;;;;;1.10;1.00;;;25.10;61.00;;;;;;5070458;28;20035;-87
2021/07/07 11:09:15;;;;;;;1.65;1.20;;;25.20;61.10;;;;;;5054504;28;20040;-86
2021/07/07 11:11:44;;;;;;;1.10;1.00;;;25.20;61.10;;;;;;5060159;28;20020;-84
2021/07/07 11:14:23;;;;;;;1.17;0.98;;;25.20;60.90;;;;;;5055341;28;20028;-87
2021/07/07 11:16:57;;;;;;;1.95;1.30;;;25.20;60.90;;;;;;5067237;28;20028;-86
2021/07/07 11:19:37;;;;;;;1.85;1.20;;;25.30;60.90;;;;;;5069960;28;20461;-87
2021/07/07 11:22:03;;;;;;;1.95;1.30;;;25.30;60.90;;;;;;5060268;28;20063;-87
2021/07/07 11:24:29;;;;;;;2.45;1.25;;;25.30;60.80;;;;;;5060357;28;20429;-88
2021/07/07 11:27:17;;;;;;;2.72;1.30;;;25.40;60.80;;;;;;5043889;28;20135;-87
2021/07/07 11:29:44;;;;;;;1.20;1.10;;;25.40;60.90;;;;;;5060481;28;20119;-88
2021/07/07 11:32:31;;;;;;;1.65;1.20;;;25.40;60.80;;;;;;5059638;28;20064;-88
2021/07/07 11:35:01;;;;;;;1.42;1.20;;;25.40;60.90;;;;;;5060403;28;20028;-87
2021/07/07 11:37:32;;;;;;;1.42;1.17;;;25.40;60.70;;;;;;5060534;28;20032;-83
2021/07/07 11:40:29;;;;;;;2.88;1.30;;;25.50;60.70;;;;;;5052114;28;20029;-87
2021/07/07 11:43:17;;;;;;;1.65;1.20;;;25.50;60.80;;;;;;5044065;28;20079;-88
2021/07/07 11:45:44;;;;;;;1.25;1.15;;;25.50;60.70;;;;;;5057099;28;20024;-86
2021/07/07 11:48:19;;;;;;;2.85;1.25;;;25.60;60.60;;;;;;5062040;28;20085;-86
2021/07/07 11:50:52;;;;;;;1.83;1.10;;;25.60;60.60;;;;;;5059983;28;20020;-86
2021/07/07 11:53:19;;;;;;;1.25;1.15;;;25.60;60.50;;;;;;5051207;28;20028;-86
2021/07/07 11:55:58;;;;;;;1.48;1.20;;;25.60;60.40;;;;;;5055418;28;20029;-87
2021/07/07 11:58:25;;;;;;;1.10;1.00;;;25.60;60.40;;;;;;5058314;28;20100;-88
2021/07/07 12:00:54;;;;;;;1.35;1.08;;;25.70;60.40;;;;;;5077571;28;20753;-87
2021/07/07 12:03:21;;;;;;;1.88;1.30;;;25.70;60.40;;;;;;5052353;28;20047;-87
2021/07/07 12:06:01;;;;;;;1.42;1.10;;;25.80;60.40;;;;;;5060832;28;20479;-87
2021/07/07 12:08:29;;;;;;;1.33;1.10;;;25.80;61.10;;;;;;5059476;28;20063;-88
2021/07/07 12:11:06;;;;;;;2.00;1.10;;;25.80;60.20;;;;;;5067354;28;20016;-87
2021/07/07 12:13:33;;;;;;;1.30;1.20;;;25.90;60.30;;;;;;5058909;28;20043;-86
2021/07/07 12:16:17;;;;;;;2.25;1.30;;;25.90;60.20;;;;;;5052136;28;20051;-86
2021/07/07 12:18:46;;;;;;;1.27;0.93;;;25.90;60.20;;;;;;5051641;28;20050;-87
2021/07/07 12:21:32;;;;;;;1.77;1.15;;;26.00;60.10;;;;;;5059876;28;20047;-87
2021/07/07 12:24:02;;;;;;;1.48;1.10;;;26.00;60.20;;;;;;5043827;28;20416;-85
2021/07/07 12:26:35;;;;;;;1.90;1.17;;;26.00;59.90;;;;;;5057186;28;20028;-87
2021/07/07 12:29:02;;;;;;;1.63;1.02;;;26.00;60.50;;;;;;5048008;28;20017;-88
2021/07/07 12:31:31;;;;;;;1.42;1.08;;;26.10;59.80;;;;;;5051651;28;20494;-87
2021/07/07 12:33:57;;;;;;;1.20;1.10;;;26.10;59.70;;;;;;5059783;28;20024;-87
2021/07/07 12:36:30;;;;;;;2.67;1.50;;;26.10;59.60;;;;;;5051447;28;20027;-87
2021/07/07 12:38:58;;;;;;;1.63;1.17;;;26.10;59.60;;;;;;5060318;28;20115;-87
2021/07/07 12:41:33;;;;;;;1.75;1.15;;;26.20;59.60;;;;;;5053883;28;20046;-87
2021/07/07 12:44:14;;;;;;;1.85;1.55;;;26.20;59.50;;;;;;5058128;28;20034;-87
2021/07/07 12:47:02;;;;;;;2.08;1.15;;;26.20;59.40;;;;;;5056564;28;20028;-87
2021/07/07 12:49:53;;;;;;;1.20;1.10;;;26.30;59.40;;;;;;5056855;28;20157;-87
2021/07/07 12:52:25;;;;;;;1.30;1.20;;;26.30;59.40;;;;;;5048963;28;20418;-86
2021/07/07 12:55:11;;;;;;;1.50;1.13;;;26.30;59.40;;;;;;5053359;28;20114;-86
2021/07/07 12:57:44;;;;;;;1.20;1.10;;;26.30;59.40;;;;;;5067565;28;20082;-86
2021/07/07 13:00:12;;;;;;;1.83;1.10;;;26.30;59.20;;;;;;5042826;28;20066;-86
2021/07/07 13:03:08;;;;;;;1.73;1.20;;;26.40;59.30;;;;;;5043676;28;20080;-86
2021/07/07 13:05:36;;;;;;;1.65;1.02;;;26.40;59.40;;;;;;5048336;28;20087;-86